sensor_id;sensor_type;location;lat;lon;timestamp;pressure;altitude;pressure_sealevel;temperature;humidity
40946;BME280;55635;50.264;11.918;2023-01-31T00:02:32;95846.00;;;3.95;84.36
40946;BME280;55635;50.264;11.918;2023-01-31T00:05:13;95861.06;;;4.03;84.41
40946;BME280;55635;50.264;11.918;2023-01-31T00:07:54;95848.88;;;4.21;83.69
40946;BME280;55635;50.264;11.918;2023-01-31T00:10:35;95841.97;;;4.20;83.17
40946;BME280;55635;50.264;11.918;2023-01-31T00:13:16;95851.59;;;4.38;82.32
40946;BME280;55635;50.264;11.918;2023-01-31T00:15:57;95862.00;;;4.21;82.47
40946;BME280;55635;50.264;11.918;2023-01-31T00:18:38;95863.53;;;4.14;82.97
40946;BME280;55635;50.264;11.918;2023-01-31T00:21:26;95866.16;;;4.14;83.62
40946;BME280;55635;50.264;11.918;2023-01-31T00:24:08;95853.03;;;3.95;83.90
40946;BME280;55635;50.264;11.918;2023-01-31T00:26:49;95853.88;;;3.85;84.16
40946;BME280;55635;50.264;11.918;2023-01-31T00:29:36;95855.81;;;3.93;83.65
40946;BME280;55635;50.264;11.918;2023-01-31T00:32:17;95855.25;;;3.99;83.06
40946;BME280;55635;50.264;11.918;2023-01-31T00:34:58;95871.53;;;4.12;82.77
40946;BME280;55635;50.264;11.918;2023-01-31T00:37:38;95872.63;;;4.10;82.54
40946;BME280;55635;50.264;11.918;2023-01-31T00:40:19;95872.09;;;3.97;82.78
40946;BME280;55635;50.264;11.918;2023-01-31T00:43:00;95871.81;;;3.90;82.86
40946;BME280;55635;50.264;11.918;2023-01-31T00:45:41;95859.78;;;4.07;82.04
40946;BME280;55635;50.264;11.918;2023-01-31T00:48:22;95866.03;;;3.87;81.58
40946;BME280;55635;50.264;11.918;2023-01-31T00:51:06;95875.25;;;4.10;81.28
40946;BME280;55635;50.264;11.918;2023-01-31T00:53:48;95885.22;;;3.97;81.58
40946;BME280;55635;50.264;11.918;2023-01-31T00:56:29;95878.44;;;4.04;81.27
40946;BME280;55635;50.264;11.918;2023-01-31T00:59:11;95883.41;;;4.07;81.00
40946;BME280;55635;50.264;11.918;2023-01-31T01:01:52;95889.75;;;4.14;80.25
40946;BME280;55635;50.264;11.918;2023-01-31T01:04:33;95885.91;;;3.99;80.67
40946;BME280;55635;50.264;11.918;2023-01-31T01:07:14;95887.97;;;3.95;81.03
40946;BME280;55635;50.264;11.918;2023-01-31T01:09:55;95885.50;;;4.03;80.77
40946;BME280;55635;50.264;11.918;2023-01-31T01:12:36;95877.75;;;3.82;80.82
40946;BME280;55635;50.264;11.918;2023-01-31T01:15:17;95886.44;;;3.83;80.86
40946;BME280;55635;50.264;11.918;2023-01-31T01:17:58;95883.53;;;3.86;80.80
40946;BME280;55635;50.264;11.918;2023-01-31T01:20:39;95904.38;;;4.07;80.62
40946;BME280;55635;50.264;11.918;2023-01-31T01:23:20;95902.47;;;3.99;80.50
40946;BME280;55635;50.264;11.918;2023-01-31T01:26:01;95913.38;;;4.14;80.37
40946;BME280;55635;50.264;11.918;2023-01-31T01:28:43;95902.75;;;3.96;80.54
40946;BME280;55635;50.264;11.918;2023-01-31T01:31:24;95908.66;;;3.89;80.32
40946;BME280;55635;50.264;11.918;2023-01-31T01:34:14;95913.91;;;4.08;80.02
40946;BME280;55635;50.264;11.918;2023-01-31T01:36:55;95910.06;;;4.12;80.20
40946;BME280;55635;50.264;11.918;2023-01-31T01:39:39;95899.41;;;4.04;81.04
40946;BME280;55635;50.264;11.918;2023-01-31T01:42:23;95879.13;;;4.06;80.36
40946;BME280;55635;50.264;11.918;2023-01-31T01:45:12;95893.06;;;3.77;81.59
40946;BME280;55635;50.264;11.918;2023-01-31T01:48:00;95869.06;;;3.72;81.83
40946;BME280;55635;50.264;11.918;2023-01-31T01:50:48;95886.69;;;3.70;82.00
40946;BME280;55635;50.264;11.918;2023-01-31T01:53:29;95886.88;;;3.78;81.78
40946;BME280;55635;50.264;11.918;2023-01-31T01:56:36;95914.06;;;4.06;81.31
40946;BME280;55635;50.264;11.918;2023-01-31T01:59:28;95897.06;;;4.01;80.74
40946;BME280;55635;50.264;11.918;2023-01-31T02:02:12;95916.81;;;4.14;80.17
40946;BME280;55635;50.264;11.918;2023-01-31T02:04:53;95914.63;;;3.91;80.32
40946;BME280;55635;50.264;11.918;2023-01-31T02:07:34;95910.75;;;3.75;80.70
40946;BME280;55635;50.264;11.918;2023-01-31T02:10:48;95927.69;;;3.71;81.04
40946;BME280;55635;50.264;11.918;2023-01-31T02:13:32;95935.88;;;3.88;80.92
40946;BME280;55635;50.264;11.918;2023-01-31T02:16:14;95933.25;;;3.88;80.37
40946;BME280;55635;50.264;11.918;2023-01-31T02:18:56;95942.47;;;3.92;80.40
40946;BME280;55635;50.264;11.918;2023-01-31T02:34:36;95970.53;;;4.10;77.80
40946;BME280;55635;50.264;11.918;2023-01-31T02:44:00;95970.97;;;4.15;77.02
40946;BME280;55635;50.264;11.918;2023-01-31T02:47:10;95976.03;;;4.07;76.95
40946;BME280;55635;50.264;11.918;2023-01-31T02:53:04;95983.53;;;4.12;76.42
40946;BME280;55635;50.264;11.918;2023-01-31T02:55:57;95982.13;;;4.08;76.19
40946;BME280;55635;50.264;11.918;2023-01-31T02:59:15;95980.72;;;4.04;76.52
40946;BME280;55635;50.264;11.918;2023-01-31T03:02:03;95980.75;;;3.94;77.02
40946;BME280;55635;50.264;11.918;2023-01-31T03:04:44;95980.88;;;4.02;76.98
40946;BME280;55635;50.264;11.918;2023-01-31T03:07:30;95982.69;;;4.21;76.84
40946;BME280;55635;50.264;11.918;2023-01-31T03:10:59;95982.13;;;4.17;77.55
40946;BME280;55635;50.264;11.918;2023-01-31T03:14:04;95980.91;;;4.12;77.78
40946;BME280;55635;50.264;11.918;2023-01-31T03:20:41;95989.69;;;3.92;79.98
40946;BME280;55635;50.264;11.918;2023-01-31T03:23:25;95981.13;;;3.80;80.34
40946;BME280;55635;50.264;11.918;2023-01-31T03:26:09;95988.00;;;3.71;80.84
40946;BME280;55635;50.264;11.918;2023-01-31T03:28:52;95984.25;;;3.64;81.36
40946;BME280;55635;50.264;11.918;2023-01-31T03:31:40;95992.16;;;3.74;81.27
40946;BME280;55635;50.264;11.918;2023-01-31T03:34:24;96011.47;;;3.73;81.89
40946;BME280;55635;50.264;11.918;2023-01-31T03:37:19;96022.19;;;3.60;82.37
40946;BME280;55635;50.264;11.918;2023-01-31T03:40:45;96024.75;;;3.81;82.80
40946;BME280;55635;50.264;11.918;2023-01-31T03:43:43;96023.53;;;3.55;84.02
40946;BME280;55635;50.264;11.918;2023-01-31T03:46:44;96019.22;;;3.44;84.60
40946;BME280;55635;50.264;11.918;2023-01-31T03:49:28;96027.94;;;3.45;83.52
40946;BME280;55635;50.264;11.918;2023-01-31T03:52:15;96023.94;;;3.50;82.49
40946;BME280;55635;50.264;11.918;2023-01-31T03:55:22;96039.31;;;3.34;83.07
40946;BME280;55635;50.264;11.918;2023-01-31T03:58:06;96034.53;;;3.18;82.96
40946;BME280;55635;50.264;11.918;2023-01-31T04:00:49;96034.75;;;3.26;82.25
40946;BME280;55635;50.264;11.918;2023-01-31T04:03:44;96033.22;;;3.03;82.74
40946;BME280;55635;50.264;11.918;2023-01-31T04:06:27;96039.09;;;3.16;82.16
40946;BME280;55635;50.264;11.918;2023-01-31T04:09:09;96039.16;;;3.26;81.89
40946;BME280;55635;50.264;11.918;2023-01-31T04:11:51;96056.34;;;3.49;81.31
40946;BME280;55635;50.264;11.918;2023-01-31T04:14:32;96050.00;;;3.42;80.83
40946;BME280;55635;50.264;11.918;2023-01-31T04:17:13;96045.03;;;3.49;80.76
40946;BME280;55635;50.264;11.918;2023-01-31T04:19:54;96033.03;;;3.46;80.22
40946;BME280;55635;50.264;11.918;2023-01-31T04:22:35;96030.06;;;3.30;80.34
40946;BME280;55635;50.264;11.918;2023-01-31T04:25:16;96025.63;;;3.30;80.72
40946;BME280;55635;50.264;11.918;2023-01-31T04:27:57;96030.41;;;3.46;80.79
40946;BME280;55635;50.264;11.918;2023-01-31T04:30:38;96013.38;;;3.31;81.16
40946;BME280;55635;50.264;11.918;2023-01-31T04:33:19;96028.56;;;3.37;80.83
40946;BME280;55635;50.264;11.918;2023-01-31T04:36:00;96020.91;;;3.24;81.54
40946;BME280;55635;50.264;11.918;2023-01-31T04:38:41;96021.75;;;3.25;82.08
40946;BME280;55635;50.264;11.918;2023-01-31T04:41:22;96016.97;;;3.30;82.10
40946;BME280;55635;50.264;11.918;2023-01-31T04:44:03;96014.63;;;3.37;81.85
40946;BME280;55635;50.264;11.918;2023-01-31T04:46:44;95995.56;;;3.25;82.19
40946;BME280;55635;50.264;11.918;2023-01-31T04:49:26;96011.91;;;3.38;81.96
40946;BME280;55635;50.264;11.918;2023-01-31T04:52:07;96020.75;;;3.47;82.36
40946;BME280;55635;50.264;11.918;2023-01-31T04:54:50;96033.22;;;3.54;82.42
40946;BME280;55635;50.264;11.918;2023-01-31T04:57:31;96024.78;;;3.51;82.48
40946;BME280;55635;50.264;11.918;2023-01-31T05:00:13;96017.13;;;3.38;82.92
40946;BME280;55635;50.264;11.918;2023-01-31T05:02:54;96024.03;;;3.39;83.11
40946;BME280;55635;50.264;11.918;2023-01-31T05:05:35;96022.69;;;3.45;83.38
40946;BME280;55635;50.264;11.918;2023-01-31T05:08:16;96031.75;;;3.41;83.42
40946;BME280;55635;50.264;11.918;2023-01-31T05:10:59;96014.22;;;3.32;83.42
40946;BME280;55635;50.264;11.918;2023-01-31T05:13:40;96036.06;;;3.42;83.30
40946;BME280;55635;50.264;11.918;2023-01-31T05:16:22;96018.00;;;3.48;82.69
40946;BME280;55635;50.264;11.918;2023-01-31T05:19:03;96035.59;;;3.37;83.09
40946;BME280;55635;50.264;11.918;2023-01-31T05:21:44;96034.78;;;3.36;83.35
40946;BME280;55635;50.264;11.918;2023-01-31T05:24:40;96028.25;;;3.30;83.00
40946;BME280;55635;50.264;11.918;2023-01-31T05:27:21;96026.34;;;3.33;82.71
40946;BME280;55635;50.264;11.918;2023-01-31T05:30:02;96031.81;;;3.20;83.20
40946;BME280;55635;50.264;11.918;2023-01-31T05:32:46;96042.03;;;3.23;82.50
40946;BME280;55635;50.264;11.918;2023-01-31T05:35:28;96046.06;;;3.37;82.41
40946;BME280;55635;50.264;11.918;2023-01-31T05:38:09;96036.69;;;3.34;81.55
40946;BME280;55635;50.264;11.918;2023-01-31T05:40:53;96058.97;;;3.49;81.82
40946;BME280;55635;50.264;11.918;2023-01-31T05:43:34;96051.09;;;3.49;81.82
40946;BME280;55635;50.264;11.918;2023-01-31T05:46:15;96047.22;;;3.44;82.48
40946;BME280;55635;50.264;11.918;2023-01-31T05:48:56;96056.63;;;3.46;82.17
40946;BME280;55635;50.264;11.918;2023-01-31T05:51:37;96049.06;;;3.53;81.87
40946;BME280;55635;50.264;11.918;2023-01-31T05:54:18;96074.25;;;3.74;81.68
40946;BME280;55635;50.264;11.918;2023-01-31T05:57:02;96052.94;;;3.58;81.63
40946;BME280;55635;50.264;11.918;2023-01-31T05:59:43;96063.19;;;3.71;81.63
40946;BME280;55635;50.264;11.918;2023-01-31T06:02:24;96068.91;;;3.85;81.17
40946;BME280;55635;50.264;11.918;2023-01-31T06:05:05;96073.09;;;3.98;80.96
40946;BME280;55635;50.264;11.918;2023-01-31T06:07:46;96070.38;;;3.69;81.74
40946;BME280;55635;50.264;11.918;2023-01-31T06:10:27;96078.59;;;3.85;81.57
40946;BME280;55635;50.264;11.918;2023-01-31T06:13:08;96084.06;;;3.72;82.10
40946;BME280;55635;50.264;11.918;2023-01-31T06:15:49;96077.00;;;3.63;82.21
40946;BME280;55635;50.264;11.918;2023-01-31T06:18:31;96082.28;;;3.52;82.19
40946;BME280;55635;50.264;11.918;2023-01-31T06:21:11;96086.69;;;3.52;81.94
40946;BME280;55635;50.264;11.918;2023-01-31T06:23:52;96097.78;;;3.35;82.05
40946;BME280;55635;50.264;11.918;2023-01-31T06:26:33;96083.81;;;3.45;81.59
40946;BME280;55635;50.264;11.918;2023-01-31T06:29:14;96092.97;;;3.40;81.59
40946;BME280;55635;50.264;11.918;2023-01-31T06:31:55;96087.06;;;3.17;82.26
40946;BME280;55635;50.264;11.918;2023-01-31T06:34:36;96057.22;;;3.29;81.78
40946;BME280;55635;50.264;11.918;2023-01-31T06:37:17;96077.28;;;3.19;81.61
40946;BME280;55635;50.264;11.918;2023-01-31T06:39:58;96092.09;;;3.09;81.28
40946;BME280;55635;50.264;11.918;2023-01-31T06:42:39;96086.81;;;3.20;81.46
40946;BME280;55635;50.264;11.918;2023-01-31T06:45:20;96087.13;;;3.06;81.91
40946;BME280;55635;50.264;11.918;2023-01-31T06:48:01;96090.00;;;3.03;81.49
40946;BME280;55635;50.264;11.918;2023-01-31T06:50:43;96089.50;;;3.09;81.55
40946;BME280;55635;50.264;11.918;2023-01-31T06:53:24;96090.00;;;3.03;81.71
40946;BME280;55635;50.264;11.918;2023-01-31T06:56:05;96090.50;;;2.97;82.14
40946;BME280;55635;50.264;11.918;2023-01-31T06:58:47;96098.50;;;2.95;81.84
40946;BME280;55635;50.264;11.918;2023-01-31T07:01:28;96100.97;;;2.97;81.85
40946;BME280;55635;50.264;11.918;2023-01-31T07:04:09;96105.09;;;3.10;81.28
40946;BME280;55635;50.264;11.918;2023-01-31T07:06:50;96105.84;;;3.01;80.84
40946;BME280;55635;50.264;11.918;2023-01-31T07:09:31;96104.50;;;3.07;80.71
40946;BME280;55635;50.264;11.918;2023-01-31T07:12:12;96107.63;;;3.01;80.92
40946;BME280;55635;50.264;11.918;2023-01-31T07:14:52;96112.38;;;3.07;81.03
40946;BME280;55635;50.264;11.918;2023-01-31T07:17:33;96108.53;;;3.11;80.82
40946;BME280;55635;50.264;11.918;2023-01-31T07:20:14;96116.91;;;3.05;80.37
40946;BME280;55635;50.264;11.918;2023-01-31T07:22:56;96121.13;;;3.17;80.50
40946;BME280;55635;50.264;11.918;2023-01-31T07:25:38;96130.09;;;3.14;81.10
40946;BME280;55635;50.264;11.918;2023-01-31T07:28:18;96129.16;;;3.25;81.07
40946;BME280;55635;50.264;11.918;2023-01-31T07:31:13;96133.72;;;3.44;80.58
40946;BME280;55635;50.264;11.918;2023-01-31T07:33:54;96127.03;;;3.30;80.67
40946;BME280;55635;50.264;11.918;2023-01-31T07:36:35;96131.34;;;3.41;80.36
40946;BME280;55635;50.264;11.918;2023-01-31T07:39:16;96131.72;;;3.57;79.91
40946;BME280;55635;50.264;11.918;2023-01-31T07:41:57;96133.41;;;3.67;79.31
40946;BME280;55635;50.264;11.918;2023-01-31T07:44:38;96141.00;;;3.91;78.56
40946;BME280;55635;50.264;11.918;2023-01-31T07:47:19;96149.50;;;4.14;77.63
40946;BME280;55635;50.264;11.918;2023-01-31T07:50:00;96148.16;;;4.29;77.25
40946;BME280;55635;50.264;11.918;2023-01-31T07:52:41;96138.47;;;4.20;76.45
40946;BME280;55635;50.264;11.918;2023-01-31T07:55:22;96139.34;;;4.30;76.80
40946;BME280;55635;50.264;11.918;2023-01-31T07:58:02;96145.03;;;4.45;76.43
40946;BME280;55635;50.264;11.918;2023-01-31T08:00:43;96143.66;;;4.50;76.00
40946;BME280;55635;50.264;11.918;2023-01-31T08:03:43;96125.00;;;4.53;75.76
40946;BME280;55635;50.264;11.918;2023-01-31T08:06:24;96129.44;;;4.62;75.91
40946;BME280;55635;50.264;11.918;2023-01-31T08:09:05;96129.81;;;4.38;75.83
40946;BME280;55635;50.264;11.918;2023-01-31T08:11:46;96118.81;;;4.54;76.33
40946;BME280;55635;50.264;11.918;2023-01-31T08:14:27;96122.66;;;4.50;76.24
40946;BME280;55635;50.264;11.918;2023-01-31T08:17:08;96119.75;;;4.53;76.90
40946;BME280;55635;50.264;11.918;2023-01-31T08:19:49;96111.88;;;4.53;76.89
40946;BME280;55635;50.264;11.918;2023-01-31T08:22:30;96109.69;;;4.58;76.96
40946;BME280;55635;50.264;11.918;2023-01-31T08:25:11;96109.44;;;4.71;76.67
40946;BME280;55635;50.264;11.918;2023-01-31T08:27:52;96111.63;;;4.66;76.93
40946;BME280;55635;50.264;11.918;2023-01-31T08:30:33;96112.88;;;4.52;77.35
40946;BME280;55635;50.264;11.918;2023-01-31T08:33:14;96130.72;;;4.68;77.31
40946;BME280;55635;50.264;11.918;2023-01-31T08:35:55;96128.34;;;4.55;77.95
40946;BME280;55635;50.264;11.918;2023-01-31T08:38:36;96128.47;;;4.54;78.23
40946;BME280;55635;50.264;11.918;2023-01-31T08:41:20;96135.00;;;4.78;77.88
40946;BME280;55635;50.264;11.918;2023-01-31T08:44:02;96120.63;;;5.11;76.48
40946;BME280;55635;50.264;11.918;2023-01-31T08:46:44;96126.69;;;5.31;75.88
40946;BME280;55635;50.264;11.918;2023-01-31T08:49:25;96122.28;;;5.03;75.85
40946;BME280;55635;50.264;11.918;2023-01-31T08:52:06;96121.72;;;5.09;75.58
40946;BME280;55635;50.264;11.918;2023-01-31T08:54:47;96119.34;;;5.44;75.08
40946;BME280;55635;50.264;11.918;2023-01-31T08:57:28;96124.53;;;5.63;73.75
40946;BME280;55635;50.264;11.918;2023-01-31T09:00:10;96132.53;;;5.90;73.50
40946;BME280;55635;50.264;11.918;2023-01-31T09:03:01;96127.38;;;5.98;72.79
40946;BME280;55635;50.264;11.918;2023-01-31T09:05:42;96126.31;;;5.91;72.16
40946;BME280;55635;50.264;11.918;2023-01-31T09:08:23;96128.00;;;5.73;72.68
40946;BME280;55635;50.264;11.918;2023-01-31T09:11:04;96125.28;;;5.56;72.52
40946;BME280;55635;50.264;11.918;2023-01-31T09:13:47;96127.34;;;5.52;73.27
40946;BME280;55635;50.264;11.918;2023-01-31T09:16:30;96127.94;;;5.27;73.89
40946;BME280;55635;50.264;11.918;2023-01-31T09:19:12;96132.63;;;5.33;73.48
40946;BME280;55635;50.264;11.918;2023-01-31T09:21:52;96123.13;;;4.93;74.83
40946;BME280;55635;50.264;11.918;2023-01-31T09:24:33;96121.72;;;4.99;75.42
40946;BME280;55635;50.264;11.918;2023-01-31T09:27:14;96122.84;;;4.97;75.51
40946;BME280;55635;50.264;11.918;2023-01-31T09:29:55;96112.75;;;4.73;76.43
40946;BME280;55635;50.264;11.918;2023-01-31T09:32:36;96116.34;;;4.81;76.52
40946;BME280;55635;50.264;11.918;2023-01-31T09:35:18;96120.75;;;4.81;77.07
40946;BME280;55635;50.264;11.918;2023-01-31T09:38:01;96116.31;;;4.62;77.70
40946;BME280;55635;50.264;11.918;2023-01-31T09:40:42;96109.97;;;4.93;77.26
40946;BME280;55635;50.264;11.918;2023-01-31T09:43:29;96101.81;;;5.16;76.41
40946;BME280;55635;50.264;11.918;2023-01-31T09:46:18;96100.13;;;5.24;75.64
40946;BME280;55635;50.264;11.918;2023-01-31T09:49:01;96091.09;;;5.46;75.02
40946;BME280;55635;50.264;11.918;2023-01-31T09:51:51;96092.72;;;5.57;74.52
40946;BME280;55635;50.264;11.918;2023-01-31T09:54:38;96092.69;;;5.66;74.13
40946;BME280;55635;50.264;11.918;2023-01-31T10:06:57;96069.56;;;5.23;75.25
40946;BME280;55635;50.264;11.918;2023-01-31T10:09:50;96074.94;;;5.41;75.02
40946;BME280;55635;50.264;11.918;2023-01-31T10:12:46;96076.50;;;5.15;75.63
40946;BME280;55635;50.264;11.918;2023-01-31T10:18:44;96056.41;;;5.33;75.62
40946;BME280;55635;50.264;11.918;2023-01-31T10:21:48;96056.06;;;4.89;76.71
40946;BME280;55635;50.264;11.918;2023-01-31T10:27:45;96040.94;;;5.11;76.68
40946;BME280;55635;50.264;11.918;2023-01-31T10:36:56;96032.44;;;5.36;75.75
40946;BME280;55635;50.264;11.918;2023-01-31T10:40:15;96033.63;;;5.61;75.63
40946;BME280;55635;50.264;11.918;2023-01-31T10:45:51;96022.41;;;5.22;75.70
40946;BME280;55635;50.264;11.918;2023-01-31T10:48:32;96029.19;;;5.15;76.19
40946;BME280;55635;50.264;11.918;2023-01-31T10:54:52;96013.72;;;5.12;77.04
40946;BME280;55635;50.264;11.918;2023-01-31T10:57:37;96000.19;;;5.07;76.86
40946;BME280;55635;50.264;11.918;2023-01-31T11:00:30;96008.41;;;5.31;75.88
40946;BME280;55635;50.264;11.918;2023-01-31T11:03:13;96013.34;;;5.43;75.48
40946;BME280;55635;50.264;11.918;2023-01-31T11:05:57;96005.75;;;5.40;75.65
40946;BME280;55635;50.264;11.918;2023-01-31T11:09:10;96009.72;;;5.44;75.52
40946;BME280;55635;50.264;11.918;2023-01-31T11:11:58;95998.84;;;5.30;76.42
40946;BME280;55635;50.264;11.918;2023-01-31T11:14:39;95984.94;;;5.20;76.76
40946;BME280;55635;50.264;11.918;2023-01-31T11:17:23;95978.28;;;5.25;76.04
40946;BME280;55635;50.264;11.918;2023-01-31T11:20:05;95986.22;;;5.43;76.10
40946;BME280;55635;50.264;11.918;2023-01-31T11:22:46;95982.78;;;5.33;76.31
40946;BME280;55635;50.264;11.918;2023-01-31T11:25:30;95979.53;;;5.21;76.42
40946;BME280;55635;50.264;11.918;2023-01-31T11:28:36;95967.88;;;5.24;76.27
40946;BME280;55635;50.264;11.918;2023-01-31T11:31:30;95945.03;;;4.87;78.28
40946;BME280;55635;50.264;11.918;2023-01-31T11:34:27;95934.88;;;5.12;77.92
40946;BME280;55635;50.264;11.918;2023-01-31T11:37:16;95936.56;;;5.03;77.78
40946;BME280;55635;50.264;11.918;2023-01-31T11:40:20;95962.75;;;5.32;76.92
40946;BME280;55635;50.264;11.918;2023-01-31T11:43:23;95923.69;;;5.37;75.95
40946;BME280;55635;50.264;11.918;2023-01-31T11:46:06;95919.59;;;4.98;77.29
40946;BME280;55635;50.264;11.918;2023-01-31T11:48:48;95919.28;;;5.01;77.49
40946;BME280;55635;50.264;11.918;2023-01-31T11:51:30;95906.69;;;5.04;77.54
40946;BME280;55635;50.264;11.918;2023-01-31T11:54:20;95909.44;;;5.12;77.07
40946;BME280;55635;50.264;11.918;2023-01-31T11:57:02;95913.56;;;5.15;77.49
40946;BME280;55635;50.264;11.918;2023-01-31T11:59:56;95899.00;;;5.20;76.87
40946;BME280;55635;50.264;11.918;2023-01-31T12:02:39;95897.50;;;5.18;77.13
40946;BME280;55635;50.264;11.918;2023-01-31T12:05:41;95905.91;;;4.94;77.94
40946;BME280;55635;50.264;11.918;2023-01-31T12:14:16;95886.84;;;5.46;75.49
40946;BME280;55635;50.264;11.918;2023-01-31T12:17:00;95898.94;;;5.03;76.39
40946;BME280;55635;50.264;11.918;2023-01-31T12:23:29;95902.91;;;4.79;77.19
40946;BME280;55635;50.264;11.918;2023-01-31T12:26:44;95912.66;;;4.97;77.51
40946;BME280;55635;50.264;11.918;2023-01-31T12:33:28;95901.78;;;5.19;76.90
40946;BME280;55635;50.264;11.918;2023-01-31T12:36:38;95901.84;;;5.09;76.18
40946;BME280;55635;50.264;11.918;2023-01-31T12:39:46;95907.00;;;5.01;77.11
40946;BME280;55635;50.264;11.918;2023-01-31T12:55:54;95856.44;;;5.17;78.06
40946;BME280;55635;50.264;11.918;2023-01-31T13:01:58;95840.50;;;4.91;79.11
40946;BME280;55635;50.264;11.918;2023-01-31T13:05:03;95845.34;;;5.23;78.04
40946;BME280;55635;50.264;11.918;2023-01-31T13:07:54;95822.16;;;5.09;79.06
40946;BME280;55635;50.264;11.918;2023-01-31T13:11:34;95806.31;;;4.73;78.95
40946;BME280;55635;50.264;11.918;2023-01-31T13:14:25;95818.28;;;4.49;80.08
40946;BME280;55635;50.264;11.918;2023-01-31T13:17:12;95801.25;;;4.53;80.79
40946;BME280;55635;50.264;11.918;2023-01-31T13:19:59;95781.22;;;4.24;90.05
40946;BME280;55635;50.264;11.918;2023-01-31T13:22:48;95775.97;;;4.61;82.40
40946;BME280;55635;50.264;11.918;2023-01-31T13:25:52;95771.44;;;4.44;82.41
40946;BME280;55635;50.264;11.918;2023-01-31T13:28:42;95763.84;;;4.51;81.59
40946;BME280;55635;50.264;11.918;2023-01-31T13:34:49;95754.06;;;4.43;81.91
40946;BME280;55635;50.264;11.918;2023-01-31T13:37:35;95749.72;;;4.61;81.53
40946;BME280;55635;50.264;11.918;2023-01-31T13:40:30;95767.59;;;4.48;81.37
40946;BME280;55635;50.264;11.918;2023-01-31T13:43:15;95755.00;;;4.15;82.90
40946;BME280;55635;50.264;11.918;2023-01-31T13:46:03;95741.97;;;4.23;82.61
40946;BME280;55635;50.264;11.918;2023-01-31T13:48:57;95737.47;;;4.06;83.14
40946;BME280;55635;50.264;11.918;2023-01-31T13:51:53;95732.59;;;4.20;82.95
40946;BME280;55635;50.264;11.918;2023-01-31T13:54:42;95746.06;;;4.35;81.99
40946;BME280;55635;50.264;11.918;2023-01-31T13:57:33;95749.69;;;4.34;82.34
40946;BME280;55635;50.264;11.918;2023-01-31T14:03:19;95742.25;;;4.20;82.94
40946;BME280;55635;50.264;11.918;2023-01-31T14:06:00;95744.94;;;4.01;83.50
40946;BME280;55635;50.264;11.918;2023-01-31T14:11:32;95747.94;;;4.25;82.97
40946;BME280;55635;50.264;11.918;2023-01-31T14:14:20;95751.84;;;3.92;84.02
40946;BME280;55635;50.264;11.918;2023-01-31T14:20:26;95740.97;;;3.97;84.05
40946;BME280;55635;50.264;11.918;2023-01-31T14:23:28;95747.97;;;4.06;84.39
40946;BME280;55635;50.264;11.918;2023-01-31T14:29:25;95731.72;;;3.93;84.84
40946;BME280;55635;50.264;11.918;2023-01-31T14:32:24;95730.84;;;4.02;84.31
40946;BME280;55635;50.264;11.918;2023-01-31T14:38:23;95734.63;;;3.90;86.04
40946;BME280;55635;50.264;11.918;2023-01-31T14:57:23;95761.41;;;3.74;89.33
40946;BME280;55635;50.264;11.918;2023-01-31T15:03:27;95784.69;;;4.15;86.78
40946;BME280;55635;50.264;11.918;2023-01-31T15:12:01;95776.47;;;3.62;89.13
40946;BME280;55635;50.264;11.918;2023-01-31T15:14:43;95767.09;;;3.50;89.23
40946;BME280;55635;50.264;11.918;2023-01-31T15:17:29;95787.09;;;3.42;90.74
40946;BME280;55635;50.264;11.918;2023-01-31T15:20:17;95788.75;;;3.33;91.04
40946;BME280;55635;50.264;11.918;2023-01-31T15:23:04;95788.03;;;3.31;91.73
40946;BME280;55635;50.264;11.918;2023-01-31T15:25:52;95780.31;;;3.58;90.75
40946;BME280;55635;50.264;11.918;2023-01-31T15:28:37;95790.25;;;3.74;89.43
40946;BME280;55635;50.264;11.918;2023-01-31T15:31:37;95786.97;;;3.53;89.46
40946;BME280;55635;50.264;11.918;2023-01-31T15:34:34;95800.84;;;4.11;88.13
40946;BME280;55635;50.264;11.918;2023-01-31T15:37:24;95782.94;;;3.87;88.77
40946;BME280;55635;50.264;11.918;2023-01-31T15:40:21;95780.47;;;3.57;89.99
40946;BME280;55635;50.264;11.918;2023-01-31T15:43:22;95779.81;;;3.45;90.62
40946;BME280;55635;50.264;11.918;2023-01-31T15:46:33;95768.88;;;3.40;91.13
40946;BME280;55635;50.264;11.918;2023-01-31T15:49:27;95771.66;;;3.39;91.28
40946;BME280;55635;50.264;11.918;2023-01-31T15:52:21;95768.50;;;3.54;90.21
40946;BME280;55635;50.264;11.918;2023-01-31T15:55:06;95777.59;;;3.60;90.18
40946;BME280;55635;50.264;11.918;2023-01-31T15:57:57;95764.59;;;3.68;89.53
40946;BME280;55635;50.264;11.918;2023-01-31T16:00:39;95765.50;;;4.05;88.59
40946;BME280;55635;50.264;11.918;2023-01-31T16:03:26;95764.69;;;4.05;87.78
40946;BME280;55635;50.264;11.918;2023-01-31T16:06:30;95762.22;;;3.94;88.90
40946;BME280;55635;50.264;11.918;2023-01-31T16:09:28;95767.56;;;4.11;88.26
40946;BME280;55635;50.264;11.918;2023-01-31T16:12:10;95757.72;;;4.23;87.43
40946;BME280;55635;50.264;11.918;2023-01-31T16:14:52;95754.19;;;4.42;87.00
40946;BME280;55635;50.264;11.918;2023-01-31T16:17:38;95749.88;;;4.13;87.63
40946;BME280;55635;50.264;11.918;2023-01-31T16:20:39;95746.97;;;4.07;90.54
40946;BME280;55635;50.264;11.918;2023-01-31T16:23:25;95754.56;;;4.10;89.20
40946;BME280;55635;50.264;11.918;2023-01-31T16:26:29;95743.94;;;4.21;88.02
40946;BME280;55635;50.264;11.918;2023-01-31T16:29:18;95747.28;;;4.04;88.08
40946;BME280;55635;50.264;11.918;2023-01-31T16:32:00;95748.09;;;4.14;87.66
40946;BME280;55635;50.264;11.918;2023-01-31T16:34:42;95734.38;;;4.20;87.37
40946;BME280;55635;50.264;11.918;2023-01-31T16:37:37;95737.63;;;4.41;86.71
40946;BME280;55635;50.264;11.918;2023-01-31T16:40:50;95741.84;;;4.61;85.81
40946;BME280;55635;50.264;11.918;2023-01-31T16:43:33;95736.44;;;4.26;86.29
40946;BME280;55635;50.264;11.918;2023-01-31T16:46:36;95739.09;;;4.53;86.15
40946;BME280;55635;50.264;11.918;2023-01-31T16:49:29;95744.63;;;4.50;86.14
40946;BME280;55635;50.264;11.918;2023-01-31T16:52:27;95751.50;;;4.61;85.71